sensor_id;sensor_type;location;lat;lon;timestamp;temperature;humidity
71672;DHT22;62112;45.638;11.714;2022-12-18T00:01:37;19.70;89.70
71672;DHT22;62112;45.638;11.714;2022-12-18T00:04:07;19.60;89.80
71672;DHT22;62112;45.638;11.714;2022-12-18T00:06:38;19.60;89.50
71672;DHT22;62112;45.638;11.714;2022-12-18T00:09:04;19.60;89.80
71672;DHT22;62112;45.638;11.714;2022-12-18T00:11:30;19.60;89.80
71672;DHT22;62112;45.638;11.714;2022-12-18T00:13:58;19.50;89.60
71672;DHT22;62112;45.638;11.714;2022-12-18T00:16:26;19.60;89.50
71672;DHT22;62112;45.638;11.714;2022-12-18T00:18:54;19.60;89.70
71672;DHT22;62112;45.638;11.714;2022-12-18T00:21:21;19.60;89.80
71672;DHT22;62112;45.638;11.714;2022-12-18T00:23:48;19.60;89.60
71672;DHT22;62112;45.638;11.714;2022-12-18T00:26:17;19.60;89.70
71672;DHT22;62112;45.638;11.714;2022-12-18T00:28:44;19.60;89.60
71672;DHT22;62112;45.638;11.714;2022-12-18T00:31:12;19.50;89.50
71672;DHT22;62112;45.638;11.714;2022-12-18T00:33:38;19.60;89.50
71672;DHT22;62112;45.638;11.714;2022-12-18T00:36:19;19.60;89.70
71672;DHT22;62112;45.638;11.714;2022-12-18T00:38:46;19.60;89.70
71672;DHT22;62112;45.638;11.714;2022-12-18T00:41:14;19.50;89.50
71672;DHT22;62112;45.638;11.714;2022-12-18T00:44:00;19.60;89.60
71672;DHT22;62112;45.638;11.714;2022-12-18T00:46:26;19.50;89.50
71672;DHT22;62112;45.638;11.714;2022-12-18T00:48:52;19.50;89.70
71672;DHT22;62112;45.638;11.714;2022-12-18T00:51:18;19.50;89.50
71672;DHT22;62112;45.638;11.714;2022-12-18T00:53:44;19.50;89.70
71672;DHT22;62112;45.638;11.714;2022-12-18T00:56:10;19.50;89.70
71672;DHT22;62112;45.638;11.714;2022-12-18T00:58:35;19.50;89.40
71672;DHT22;62112;45.638;11.714;2022-12-18T01:01:03;19.50;89.50
71672;DHT22;62112;45.638;11.714;2022-12-18T01:03:29;19.50;89.40
71672;DHT22;62112;45.638;11.714;2022-12-18T01:05:55;19.60;89.60
71672;DHT22;62112;45.638;11.714;2022-12-18T01:08:20;19.50;89.70
71672;DHT22;62112;45.638;11.714;2022-12-18T01:10:46;19.50;89.70
71672;DHT22;62112;45.638;11.714;2022-12-18T01:13:12;19.50;89.60
71672;DHT22;62112;45.638;11.714;2022-12-18T01:15:38;19.50;89.60
71672;DHT22;62112;45.638;11.714;2022-12-18T01:18:06;19.40;89.50
71672;DHT22;62112;45.638;11.714;2022-12-18T01:20:32;19.40;89.50
71672;DHT22;62112;45.638;11.714;2022-12-18T01:22:58;19.50;89.60
71672;DHT22;62112;45.638;11.714;2022-12-18T01:25:24;19.40;89.50
71672;DHT22;62112;45.638;11.714;2022-12-18T01:27:50;19.50;89.40
71672;DHT22;62112;45.638;11.714;2022-12-18T01:30:16;19.50;89.50
71672;DHT22;62112;45.638;11.714;2022-12-18T01:32:42;19.50;89.60
71672;DHT22;62112;45.638;11.714;2022-12-18T01:35:08;19.50;89.60
71672;DHT22;62112;45.638;11.714;2022-12-18T01:37:33;19.40;89.60
71672;DHT22;62112;45.638;11.714;2022-12-18T01:39:59;19.40;89.40
71672;DHT22;62112;45.638;11.714;2022-12-18T01:42:25;19.50;89.60
71672;DHT22;62112;45.638;11.714;2022-12-18T01:48:01;19.40;89.40
71672;DHT22;62112;45.638;11.714;2022-12-18T01:50:40;19.40;89.40
71672;DHT22;62112;45.638;11.714;2022-12-18T01:53:13;19.40;89.40
71672;DHT22;62112;45.638;11.714;2022-12-18T01:55:50;19.40;89.50
71672;DHT22;62112;45.638;11.714;2022-12-18T01:58:18;19.40;89.30
71672;DHT22;62112;45.638;11.714;2022-12-18T02:00:45;19.40;89.40
71672;DHT22;62112;45.638;11.714;2022-12-18T02:03:11;19.30;89.40
71672;DHT22;62112;45.638;11.714;2022-12-18T02:05:47;19.40;89.50
71672;DHT22;62112;45.638;11.714;2022-12-18T02:08:35;19.40;89.20
71672;DHT22;62112;45.638;11.714;2022-12-18T02:11:18;19.40;89.30
71672;DHT22;62112;45.638;11.714;2022-12-18T02:13:54;19.30;89.40
71672;DHT22;62112;45.638;11.714;2022-12-18T02:16:58;19.40;89.30
71672;DHT22;62112;45.638;11.714;2022-12-18T02:19:40;19.40;89.30
71672;DHT22;62112;45.638;11.714;2022-12-18T02:27:44;19.30;89.30
71672;DHT22;62112;45.638;11.714;2022-12-18T02:30:11;19.30;89.30
71672;DHT22;62112;45.638;11.714;2022-12-18T02:32:40;19.30;89.20
71672;DHT22;62112;45.638;11.714;2022-12-18T02:35:15;19.30;89.20
71672;DHT22;62112;45.638;11.714;2022-12-18T02:37:43;19.30;89.20
71672;DHT22;62112;45.638;11.714;2022-12-18T02:40:11;19.30;89.20
71672;DHT22;62112;45.638;11.714;2022-12-18T02:42:38;19.40;89.20
71672;DHT22;62112;45.638;11.714;2022-12-18T02:45:04;19.20;89.30
71672;DHT22;62112;45.638;11.714;2022-12-18T02:47:33;19.30;89.30
71672;DHT22;62112;45.638;11.714;2022-12-18T02:53:13;19.30;89.10
71672;DHT22;62112;45.638;11.714;2022-12-18T03:01:48;19.30;89.10
71672;DHT22;62112;45.638;11.714;2022-12-18T03:06:56;19.20;89.10
71672;DHT22;62112;45.638;11.714;2022-12-18T03:09:36;19.30;89.20
71672;DHT22;62112;45.638;11.714;2022-12-18T03:12:35;19.20;89.20
71672;DHT22;62112;45.638;11.714;2022-12-18T03:15:15;19.20;89.10
71672;DHT22;62112;45.638;11.714;2022-12-18T03:17:46;19.20;89.10
71672;DHT22;62112;45.638;11.714;2022-12-18T03:20:18;19.20;89.20
71672;DHT22;62112;45.638;11.714;2022-12-18T03:22:49;19.30;89.10
71672;DHT22;62112;45.638;11.714;2022-12-18T03:25:17;19.20;89.10
71672;DHT22;62112;45.638;11.714;2022-12-18T03:27:48;19.30;88.90
71672;DHT22;62112;45.638;11.714;2022-12-18T03:30:16;19.20;89.10
71672;DHT22;62112;45.638;11.714;2022-12-18T03:32:52;19.20;89.20
71672;DHT22;62112;45.638;11.714;2022-12-18T03:35:30;19.20;89.00
71672;DHT22;62112;45.638;11.714;2022-12-18T03:37:57;19.20;89.10
71672;DHT22;62112;45.638;11.714;2022-12-18T03:40:27;19.20;89.00
71672;DHT22;62112;45.638;11.714;2022-12-18T03:43:10;19.20;89.00
71672;DHT22;62112;45.638;11.714;2022-12-18T03:45:44;19.30;89.00
71672;DHT22;62112;45.638;11.714;2022-12-18T03:48:19;19.20;89.00
71672;DHT22;62112;45.638;11.714;2022-12-18T03:50:57;19.10;89.00
71672;DHT22;62112;45.638;11.714;2022-12-18T03:55:51;19.20;88.90
71672;DHT22;62112;45.638;11.714;2022-12-18T03:58:22;19.20;89.10
71672;DHT22;62112;45.638;11.714;2022-12-18T04:00:50;19.20;89.10
71672;DHT22;62112;45.638;11.714;2022-12-18T04:03:18;19.10;88.90
71672;DHT22;62112;45.638;11.714;2022-12-18T04:05:46;19.20;89.00
71672;DHT22;62112;45.638;11.714;2022-12-18T04:08:13;19.20;89.10
71672;DHT22;62112;45.638;11.714;2022-12-18T04:10:40;19.10;88.90
71672;DHT22;62112;45.638;11.714;2022-12-18T04:13:05;19.10;88.90
71672;DHT22;62112;45.638;11.714;2022-12-18T04:15:35;19.10;88.80
71672;DHT22;62112;45.638;11.714;2022-12-18T04:18:02;19.20;88.90
71672;DHT22;62112;45.638;11.714;2022-12-18T04:20:29;19.20;88.70
71672;DHT22;62112;45.638;11.714;2022-12-18T04:22:54;19.10;88.90
71672;DHT22;62112;45.638;11.714;2022-12-18T04:25:20;19.10;88.90
71672;DHT22;62112;45.638;11.714;2022-12-18T04:27:46;19.10;88.80
71672;DHT22;62112;45.638;11.714;2022-12-18T04:30:12;19.20;88.90
71672;DHT22;62112;45.638;11.714;2022-12-18T04:32:38;19.10;88.90
71672;DHT22;62112;45.638;11.714;2022-12-18T04:35:04;19.10;88.90
71672;DHT22;62112;45.638;11.714;2022-12-18T04:37:32;19.10;88.80
71672;DHT22;62112;45.638;11.714;2022-12-18T04:39:57;19.10;88.90
71672;DHT22;62112;45.638;11.714;2022-12-18T04:42:23;19.10;88.70
71672;DHT22;62112;45.638;11.714;2022-12-18T04:44:49;19.00;88.70
71672;DHT22;62112;45.638;11.714;2022-12-18T04:47:15;19.10;88.80
71672;DHT22;62112;45.638;11.714;2022-12-18T04:49:41;19.10;89.00
71672;DHT22;62112;45.638;11.714;2022-12-18T04:52:06;19.00;88.80
71672;DHT22;62112;45.638;11.714;2022-12-18T04:54:32;19.00;88.80
71672;DHT22;62112;45.638;11.714;2022-12-18T04:56:58;19.10;88.80
71672;DHT22;62112;45.638;11.714;2022-12-18T04:59:24;19.00;88.70
71672;DHT22;62112;45.638;11.714;2022-12-18T05:01:50;19.00;89.00
71672;DHT22;62112;45.638;11.714;2022-12-18T05:04:15;19.10;88.70
71672;DHT22;62112;45.638;11.714;2022-12-18T05:06:41;19.00;88.70
71672;DHT22;62112;45.638;11.714;2022-12-18T05:09:07;19.10;88.60
71672;DHT22;62112;45.638;11.714;2022-12-18T05:11:33;19.00;88.70
71672;DHT22;62112;45.638;11.714;2022-12-18T05:13:59;19.00;88.60
71672;DHT22;62112;45.638;11.714;2022-12-18T05:16:25;19.00;88.60
71672;DHT22;62112;45.638;11.714;2022-12-18T05:18:50;19.00;88.50
71672;DHT22;62112;45.638;11.714;2022-12-18T05:21:16;19.00;88.60
71672;DHT22;62112;45.638;11.714;2022-12-18T05:23:42;19.10;88.70
71672;DHT22;62112;45.638;11.714;2022-12-18T05:26:16;19.00;88.60
71672;DHT22;62112;45.638;11.714;2022-12-18T05:28:43;18.90;88.70
71672;DHT22;62112;45.638;11.714;2022-12-18T05:31:09;18.90;88.60
71672;DHT22;62112;45.638;11.714;2022-12-18T05:33:36;19.00;88.70
71672;DHT22;62112;45.638;11.714;2022-12-18T05:36:03;19.00;88.50
71672;DHT22;62112;45.638;11.714;2022-12-18T05:38:31;19.00;88.60
71672;DHT22;62112;45.638;11.714;2022-12-18T05:40:57;19.00;88.40
71672;DHT22;62112;45.638;11.714;2022-12-18T05:43:25;18.90;88.50
71672;DHT22;62112;45.638;11.714;2022-12-18T05:45:52;19.00;88.60
71672;DHT22;62112;45.638;11.714;2022-12-18T05:48:19;18.90;88.50
71672;DHT22;62112;45.638;11.714;2022-12-18T05:50:47;18.90;88.50
71672;DHT22;62112;45.638;11.714;2022-12-18T05:53:15;19.00;88.60
71672;DHT22;62112;45.638;11.714;2022-12-18T05:55:42;18.90;88.50
71672;DHT22;62112;45.638;11.714;2022-12-18T05:58:10;18.90;88.60
71672;DHT22;62112;45.638;11.714;2022-12-18T06:00:41;19.00;88.60
71672;DHT22;62112;45.638;11.714;2022-12-18T06:03:09;19.00;88.60
71672;DHT22;62112;45.638;11.714;2022-12-18T06:05:40;19.00;88.50
71672;DHT22;62112;45.638;11.714;2022-12-18T06:08:06;18.90;88.60
71672;DHT22;62112;45.638;11.714;2022-12-18T06:10:32;18.80;88.40
71672;DHT22;62112;45.638;11.714;2022-12-18T06:12:58;18.90;88.70
71672;DHT22;62112;45.638;11.714;2022-12-18T06:15:24;18.90;88.60
71672;DHT22;62112;45.638;11.714;2022-12-18T06:17:50;18.90;88.30
71672;DHT22;62112;45.638;11.714;2022-12-18T06:20:16;18.90;88.40
71672;DHT22;62112;45.638;11.714;2022-12-18T06:22:41;18.90;88.60
71672;DHT22;62112;45.638;11.714;2022-12-18T06:25:08;18.90;88.40
71672;DHT22;62112;45.638;11.714;2022-12-18T06:27:33;18.90;88.50
71672;DHT22;62112;45.638;11.714;2022-12-18T06:30:00;19.00;88.50
71672;DHT22;62112;45.638;11.714;2022-12-18T06:32:26;18.90;88.30
71672;DHT22;62112;45.638;11.714;2022-12-18T06:34:52;18.90;88.50
71672;DHT22;62112;45.638;11.714;2022-12-18T06:37:19;18.90;88.40
71672;DHT22;62112;45.638;11.714;2022-12-18T06:39:45;18.80;88.40
71672;DHT22;62112;45.638;11.714;2022-12-18T06:42:11;18.80;88.60
71672;DHT22;62112;45.638;11.714;2022-12-18T06:44:37;18.80;88.20
71672;DHT22;62112;45.638;11.714;2022-12-18T06:47:03;18.80;88.40
71672;DHT22;62112;45.638;11.714;2022-12-18T06:49:28;18.80;88.30
71672;DHT22;62112;45.638;11.714;2022-12-18T06:51:54;18.80;88.40
71672;DHT22;62112;45.638;11.714;2022-12-18T06:54:20;18.80;88.40
71672;DHT22;62112;45.638;11.714;2022-12-18T06:56:46;18.80;88.40
71672;DHT22;62112;45.638;11.714;2022-12-18T06:59:13;18.80;88.40
71672;DHT22;62112;45.638;11.714;2022-12-18T07:01:39;18.90;88.30
71672;DHT22;62112;45.638;11.714;2022-12-18T07:04:04;18.80;88.40
71672;DHT22;62112;45.638;11.714;2022-12-18T07:06:30;18.90;88.40
71672;DHT22;62112;45.638;11.714;2022-12-18T07:08:56;18.90;88.40
71672;DHT22;62112;45.638;11.714;2022-12-18T07:11:22;18.80;88.40
71672;DHT22;62112;45.638;11.714;2022-12-18T07:13:48;18.90;88.20
71672;DHT22;62112;45.638;11.714;2022-12-18T07:16:16;18.90;88.40
71672;DHT22;62112;45.638;11.714;2022-12-18T07:18:43;18.80;88.30
71672;DHT22;62112;45.638;11.714;2022-12-18T07:21:12;18.90;88.10
71672;DHT22;62112;45.638;11.714;2022-12-18T07:23:39;18.90;88.10
71672;DHT22;62112;45.638;11.714;2022-12-18T07:26:07;19.00;88.00
71672;DHT22;62112;45.638;11.714;2022-12-18T07:28:34;18.90;88.10
71672;DHT22;62112;45.638;11.714;2022-12-18T07:31:11;18.90;88.00
71672;DHT22;62112;45.638;11.714;2022-12-18T07:33:37;18.90;88.00
71672;DHT22;62112;45.638;11.714;2022-12-18T07:36:05;19.00;88.30
71672;DHT22;62112;45.638;11.714;2022-12-18T07:38:32;19.00;88.10
71672;DHT22;62112;45.638;11.714;2022-12-18T07:41:06;19.10;88.00
71672;DHT22;62112;45.638;11.714;2022-12-18T07:43:33;19.00;88.00
71672;DHT22;62112;45.638;11.714;2022-12-18T07:45:59;19.10;87.90
71672;DHT22;62112;45.638;11.714;2022-12-18T07:48:25;19.10;87.90
71672;DHT22;62112;45.638;11.714;2022-12-18T07:50:52;19.10;88.00
71672;DHT22;62112;45.638;11.714;2022-12-18T07:53:18;19.20;87.80
71672;DHT22;62112;45.638;11.714;2022-12-18T07:55:43;19.20;87.90
71672;DHT22;62112;45.638;11.714;2022-12-18T07:58:09;19.20;87.80
71672;DHT22;62112;45.638;11.714;2022-12-18T08:00:35;19.30;87.80
71672;DHT22;62112;45.638;11.714;2022-12-18T08:03:01;19.30;87.70
71672;DHT22;62112;45.638;11.714;2022-12-18T08:05:27;19.30;87.70
71672;DHT22;62112;45.638;11.714;2022-12-18T08:07:54;19.40;87.70
71672;DHT22;62112;45.638;11.714;2022-12-18T08:10:21;19.30;87.60
71672;DHT22;62112;45.638;11.714;2022-12-18T08:12:55;19.50;87.50
71672;DHT22;62112;45.638;11.714;2022-12-18T08:15:21;19.60;87.20
71672;DHT22;62112;45.638;11.714;2022-12-18T08:17:46;19.60;87.40
71672;DHT22;62112;45.638;11.714;2022-12-18T08:20:12;19.70;87.50
71672;DHT22;62112;45.638;11.714;2022-12-18T08:22:45;19.80;87.40
71672;DHT22;62112;45.638;11.714;2022-12-18T08:25:13;19.80;87.20
71672;DHT22;62112;45.638;11.714;2022-12-18T08:27:39;19.80;87.20
71672;DHT22;62112;45.638;11.714;2022-12-18T08:30:06;19.90;87.30
71672;DHT22;62112;45.638;11.714;2022-12-18T08:32:32;19.90;87.20
71672;DHT22;62112;45.638;11.714;2022-12-18T08:34:58;20.00;87.20
71672;DHT22;62112;45.638;11.714;2022-12-18T08:37:24;20.20;87.10
71672;DHT22;62112;45.638;11.714;2022-12-18T08:39:50;20.20;86.90
71672;DHT22;62112;45.638;11.714;2022-12-18T08:42:16;20.20;86.90
71672;DHT22;62112;45.638;11.714;2022-12-18T08:45:01;20.30;87.00
71672;DHT22;62112;45.638;11.714;2022-12-18T08:47:27;20.30;86.80
71672;DHT22;62112;45.638;11.714;2022-12-18T08:49:53;20.50;86.80
71672;DHT22;62112;45.638;11.714;2022-12-18T08:52:19;20.50;86.80
71672;DHT22;62112;45.638;11.714;2022-12-18T08:54:44;20.50;86.60
71672;DHT22;62112;45.638;11.714;2022-12-18T08:57:10;20.60;86.70
71672;DHT22;62112;45.638;11.714;2022-12-18T08:59:36;20.60;86.40
71672;DHT22;62112;45.638;11.714;2022-12-18T09:02:02;20.60;86.30
71672;DHT22;62112;45.638;11.714;2022-12-18T09:04:31;20.70;86.40
71672;DHT22;62112;45.638;11.714;2022-12-18T09:06:57;20.60;86.30
71672;DHT22;62112;45.638;11.714;2022-12-18T09:09:27;20.70;86.20
71672;DHT22;62112;45.638;11.714;2022-12-18T09:11:56;20.70;86.20
71672;DHT22;62112;45.638;11.714;2022-12-18T09:14:25;20.80;86.10
71672;DHT22;62112;45.638;11.714;2022-12-18T09:16:51;20.80;86.30
71672;DHT22;62112;45.638;11.714;2022-12-18T09:19:17;20.80;86.20
71672;DHT22;62112;45.638;11.714;2022-12-18T09:21:43;20.90;86.30
71672;DHT22;62112;45.638;11.714;2022-12-18T09:24:12;20.80;86.10
71672;DHT22;62112;45.638;11.714;2022-12-18T09:26:38;20.90;84.80
71672;DHT22;62112;45.638;11.714;2022-12-18T09:29:04;21.10;84.80
71672;DHT22;62112;45.638;11.714;2022-12-18T09:31:32;21.10;84.70
71672;DHT22;62112;45.638;11.714;2022-12-18T09:33:59;21.10;84.60
71672;DHT22;62112;45.638;11.714;2022-12-18T09:36:25;21.20;84.60
71672;DHT22;62112;45.638;11.714;2022-12-18T09:38:51;21.20;84.30
71672;DHT22;62112;45.638;11.714;2022-12-18T09:41:38;21.20;84.30
71672;DHT22;62112;45.638;11.714;2022-12-18T09:44:56;21.30;84.20
71672;DHT22;62112;45.638;11.714;2022-12-18T09:47:23;21.30;84.10
71672;DHT22;62112;45.638;11.714;2022-12-18T09:50:02;21.30;84.00
71672;DHT22;62112;45.638;11.714;2022-12-18T09:52:45;21.40;84.00
71672;DHT22;62112;45.638;11.714;2022-12-18T09:55:28;21.40;83.90
71672;DHT22;62112;45.638;11.714;2022-12-18T09:58:00;21.40;84.00
71672;DHT22;62112;45.638;11.714;2022-12-18T10:00:28;21.50;83.90
71672;DHT22;62112;45.638;11.714;2022-12-18T10:02:59;21.50;83.80
71672;DHT22;62112;45.638;11.714;2022-12-18T10:05:37;21.50;83.60
71672;DHT22;62112;45.638;11.714;2022-12-18T10:08:15;21.60;83.20
71672;DHT22;62112;45.638;11.714;2022-12-18T10:10:55;21.60;83.50
71672;DHT22;62112;45.638;11.714;2022-12-18T10:16:15;21.60;83.40
71672;DHT22;62112;45.638;11.714;2022-12-18T10:21:23;21.60;83.70
71672;DHT22;62112;45.638;11.714;2022-12-18T10:26:42;21.70;83.20
71672;DHT22;62112;45.638;11.714;2022-12-18T10:29:12;21.70;83.40
71672;DHT22;62112;45.638;11.714;2022-12-18T10:31:39;21.70;83.30
71672;DHT22;62112;45.638;11.714;2022-12-18T10:34:12;21.70;83.30
71672;DHT22;62112;45.638;11.714;2022-12-18T10:36:38;21.70;83.00
71672;DHT22;62112;45.638;11.714;2022-12-18T10:39:20;21.70;83.10
71672;DHT22;62112;45.638;11.714;2022-12-18T10:41:47;21.60;82.90
71672;DHT22;62112;45.638;11.714;2022-12-18T10:44:21;21.70;83.00
71672;DHT22;62112;45.638;11.714;2022-12-18T10:46:54;21.60;82.80
71672;DHT22;62112;45.638;11.714;2022-12-18T10:49:29;21.70;82.70
71672;DHT22;62112;45.638;11.714;2022-12-18T10:52:20;21.60;83.00
71672;DHT22;62112;45.638;11.714;2022-12-18T10:54:52;21.70;82.40
71672;DHT22;62112;45.638;11.714;2022-12-18T11:00:18;21.60;82.40
71672;DHT22;62112;45.638;11.714;2022-12-18T11:02:45;21.70;82.60
71672;DHT22;62112;45.638;11.714;2022-12-18T11:05:25;21.60;82.60
71672;DHT22;62112;45.638;11.714;2022-12-18T11:07:51;21.70;82.30
71672;DHT22;62112;45.638;11.714;2022-12-18T11:10:21;21.60;82.60
71672;DHT22;62112;45.638;11.714;2022-12-18T11:12:48;21.70;82.50
71672;DHT22;62112;45.638;11.714;2022-12-18T11:15:21;21.60;82.60
71672;DHT22;62112;45.638;11.714;2022-12-18T11:17:50;21.70;82.30
71672;DHT22;62112;45.638;11.714;2022-12-18T11:20:26;21.60;82.60
71672;DHT22;62112;45.638;11.714;2022-12-18T11:22:58;21.70;82.40
71672;DHT22;62112;45.638;11.714;2022-12-18T11:25:24;21.70;82.40
71672;DHT22;62112;45.638;11.714;2022-12-18T11:27:54;21.70;82.40
71672;DHT22;62112;45.638;11.714;2022-12-18T11:30:21;21.70;82.40
71672;DHT22;62112;45.638;11.714;2022-12-18T11:35:48;21.70;82.00
71672;DHT22;62112;45.638;11.714;2022-12-18T11:38:25;21.70;81.90
71672;DHT22;62112;45.638;11.714;2022-12-18T11:43:47;21.70;82.10
71672;DHT22;62112;45.638;11.714;2022-12-18T11:46:37;21.70;81.80
71672;DHT22;62112;45.638;11.714;2022-12-18T11:49:20;21.60;82.20
71672;DHT22;62112;45.638;11.714;2022-12-18T11:51:51;21.60;82.10
71672;DHT22;62112;45.638;11.714;2022-12-18T11:54:19;21.60;82.30
71672;DHT22;62112;45.638;11.714;2022-12-18T11:56:49;21.60;82.40
71672;DHT22;62112;45.638;11.714;2022-12-18T12:07:52;21.60;82.20
71672;DHT22;62112;45.638;11.714;2022-12-18T12:13:16;21.60;82.50
71672;DHT22;62112;45.638;11.714;2022-12-18T12:18:44;21.60;82.60
71672;DHT22;62112;45.638;11.714;2022-12-18T12:21:58;21.60;82.40
71672;DHT22;62112;45.638;11.714;2022-12-18T12:24:18;21.60;82.40
71672;DHT22;62112;45.638;11.714;2022-12-18T12:29:42;21.60;82.40
71672;DHT22;62112;45.638;11.714;2022-12-18T12:32:23;21.60;82.50
71672;DHT22;62112;45.638;11.714;2022-12-18T12:35:27;21.50;82.60
71672;DHT22;62112;45.638;11.714;2022-12-18T12:40:37;21.60;82.70
71672;DHT22;62112;45.638;11.714;2022-12-18T12:43:21;21.60;82.80
71672;DHT22;62112;45.638;11.714;2022-12-18T12:46:02;21.60;82.60
71672;DHT22;62112;45.638;11.714;2022-12-18T12:51:07;21.50;82.90
71672;DHT22;62112;45.638;11.714;2022-12-18T12:53:36;21.50;82.90
71672;DHT22;62112;45.638;11.714;2022-12-18T12:56:04;21.50;82.90
71672;DHT22;62112;45.638;11.714;2022-12-18T12:59:13;21.50;82.90
71672;DHT22;62112;45.638;11.714;2022-12-18T13:04:25;21.40;83.00
71672;DHT22;62112;45.638;11.714;2022-12-18T13:07:47;21.50;82.80
71672;DHT22;62112;45.638;11.714;2022-12-18T13:10:24;21.40;83.00
71672;DHT22;62112;45.638;11.714;2022-12-18T13:13:01;21.40;83.10
71672;DHT22;62112;45.638;11.714;2022-12-18T13:15:45;21.30;83.00
71672;DHT22;62112;45.638;11.714;2022-12-18T13:18:24;21.40;83.10
71672;DHT22;62112;45.638;11.714;2022-12-18T13:21:03;21.40;83.00
71672;DHT22;62112;45.638;11.714;2022-12-18T13:23:35;21.40;82.90
71672;DHT22;62112;45.638;11.714;2022-12-18T13:36:38;21.20;83.30
71672;DHT22;62112;45.638;11.714;2022-12-18T13:44:37;21.10;83.20
71672;DHT22;62112;45.638;11.714;2022-12-18T13:47:31;21.10;83.20
71672;DHT22;62112;45.638;11.714;2022-12-18T13:49:58;21.10;83.30
71672;DHT22;62112;45.638;11.714;2022-12-18T13:52:28;21.10;83.20
71672;DHT22;62112;45.638;11.714;2022-12-18T13:55:01;21.00;83.30
71672;DHT22;62112;45.638;11.714;2022-12-18T13:57:36;21.00;83.50
71672;DHT22;62112;45.638;11.714;2022-12-18T14:02:48;21.00;83.40
71672;DHT22;62112;45.638;11.714;2022-12-18T14:05:29;20.90;83.30
71672;DHT22;62112;45.638;11.714;2022-12-18T14:08:00;20.90;83.30
71672;DHT22;62112;45.638;11.714;2022-12-18T14:10:27;21.00;83.40
71672;DHT22;62112;45.638;11.714;2022-12-18T14:12:53;20.90;84.80
71672;DHT22;62112;45.638;11.714;2022-12-18T14:18:03;20.80;84.70
71672;DHT22;62112;45.638;11.714;2022-12-18T14:20:43;20.80;84.70
71672;DHT22;62112;45.638;11.714;2022-12-18T14:23:29;20.70;84.80
71672;DHT22;62112;45.638;11.714;2022-12-18T14:25:55;20.70;84.70
71672;DHT22;62112;45.638;11.714;2022-12-18T14:28:21;20.70;84.70
71672;DHT22;62112;45.638;11.714;2022-12-18T14:30:52;20.60;84.80
71672;DHT22;62112;45.638;11.714;2022-12-18T14:33:22;20.60;84.80
71672;DHT22;62112;45.638;11.714;2022-12-18T14:35:57;20.60;84.90
71672;DHT22;62112;45.638;11.714;2022-12-18T14:38:35;20.60;85.00
71672;DHT22;62112;45.638;11.714;2022-12-18T14:41:04;20.60;85.00
71672;DHT22;62112;45.638;11.714;2022-12-18T14:43:33;20.60;85.00
71672;DHT22;62112;45.638;11.714;2022-12-18T14:46:01;20.60;85.00
71672;DHT22;62112;45.638;11.714;2022-12-18T14:48:35;20.60;85.20
71672;DHT22;62112;45.638;11.714;2022-12-18T14:51:05;20.60;85.20
71672;DHT22;62112;45.638;11.714;2022-12-18T14:53:35;20.50;85.10
71672;DHT22;62112;45.638;11.714;2022-12-18T14:56:03;20.50;85.40
71672;DHT22;62112;45.638;11.714;2022-12-18T14:58:29;20.60;85.20
71672;DHT22;62112;45.638;11.714;2022-12-18T15:00:55;20.60;85.20
71672;DHT22;62112;45.638;11.714;2022-12-18T15:03:21;20.60;85.30
71672;DHT22;62112;45.638;11.714;2022-12-18T15:05:47;20.60;85.20
71672;DHT22;62112;45.638;11.714;2022-12-18T15:08:36;20.60;85.10
71672;DHT22;62112;45.638;11.714;2022-12-18T15:11:02;20.60;84.90
71672;DHT22;62112;45.638;11.714;2022-12-18T15:13:28;20.60;85.10
71672;DHT22;62112;45.638;11.714;2022-12-18T15:15:57;20.60;85.00
71672;DHT22;62112;45.638;11.714;2022-12-18T15:18:30;20.60;84.90
71672;DHT22;62112;45.638;11.714;2022-12-18T15:21:08;20.60;84.90
71672;DHT22;62112;45.638;11.714;2022-12-18T15:23:45;20.70;84.80
71672;DHT22;62112;45.638;11.714;2022-12-18T15:26:14;20.70;85.00
71672;DHT22;62112;45.638;11.714;2022-12-18T15:28:55;20.60;84.90
71672;DHT22;62112;45.638;11.714;2022-12-18T15:31:33;20.70;84.80
71672;DHT22;62112;45.638;11.714;2022-12-18T15:36:34;20.70;84.90
71672;DHT22;62112;45.638;11.714;2022-12-18T15:39:02;20.70;85.00
71672;DHT22;62112;45.638;11.714;2022-12-18T15:41:32;20.70;84.80
71672;DHT22;62112;45.638;11.714;2022-12-18T15:43:58;20.80;84.70
71672;DHT22;62112;45.638;11.714;2022-12-18T15:46:25;20.80;84.80
71672;DHT22;62112;45.638;11.714;2022-12-18T15:48:56;20.80;84.90
71672;DHT22;62112;45.638;11.714;2022-12-18T15:51:29;20.80;84.80
71672;DHT22;62112;45.638;11.714;2022-12-18T15:53:59;20.90;83.50
71672;DHT22;62112;45.638;11.714;2022-12-18T15:56:26;20.80;84.80
71672;DHT22;62112;45.638;11.714;2022-12-18T15:59:12;20.80;84.60
71672;DHT22;62112;45.638;11.714;2022-12-18T16:01:39;20.90;83.50
71672;DHT22;62112;45.638;11.714;2022-12-18T16:04:05;20.90;83.50
71672;DHT22;62112;45.638;11.714;2022-12-18T16:06:31;20.80;84.70
71672;DHT22;62112;45.638;11.714;2022-12-18T16:08:57;20.90;83.50
71672;DHT22;62112;45.638;11.714;2022-12-18T16:11:25;20.90;83.40
71672;DHT22;62112;45.638;11.714;2022-12-18T16:14:25;20.90;83.50
71672;DHT22;62112;45.638;11.714;2022-12-18T16:16:56;21.00;83.20
71672;DHT22;62112;45.638;11.714;2022-12-18T16:19:23;20.90;83.40
71672;DHT22;62112;45.638;11.714;2022-12-18T16:21:52;20.90;83.30
71672;DHT22;62112;45.638;11.714;2022-12-18T16:24:24;20.90;83.30
71672;DHT22;62112;45.638;11.714;2022-12-18T16:26:51;21.10;83.20
71672;DHT22;62112;45.638;11.714;2022-12-18T16:29:18;21.00;83.30
71672;DHT22;62112;45.638;11.714;2022-12-18T16:31:44;21.00;83.30
71672;DHT22;62112;45.638;11.714;2022-12-18T16:34:40;21.00;83.20
71672;DHT22;62112;45.638;11.714;2022-12-18T16:37:07;21.00;83.20
71672;DHT22;62112;45.638;11.714;2022-12-18T16:39:34;21.00;83.30
71672;DHT22;62112;45.638;11.714;2022-12-18T16:42:02;21.00;83.30
71672;DHT22;62112;45.638;11.714;2022-12-18T16:44:28;21.00;83.20
71672;DHT22;62112;45.638;11.714;2022-12-18T16:46:55;21.00;83.10
71672;DHT22;62112;45.638;11.714;2022-12-18T16:49:27;21.10;83.10
71672;DHT22;62112;45.638;11.714;2022-12-18T16:51:53;21.00;83.40
71672;DHT22;62112;45.638;11.714;2022-12-18T16:54:20;21.10;83.20
71672;DHT22;62112;45.638;11.714;2022-12-18T16:56:45;21.10;83.10
71672;DHT22;62112;45.638;11.714;2022-12-18T16:59:14;21.10;83.10
71672;DHT22;62112;45.638;11.714;2022-12-18T17:01:41;21.10;83.30
71672;DHT22;62112;45.638;11.714;2022-12-18T17:04:07;21.10;83.10